createdAt,value
2018-05-04T18:37:51.868Z,4.00
2018-05-04T18:40:20.877Z,4.20
2018-05-04T18:42:57.962Z,3.93
2018-05-04T18:45:31.454Z,4.10
2018-05-04T18:48:03.021Z,3.77
2018-05-04T18:50:31.933Z,3.80
2018-05-04T18:53:00.931Z,4.43
2018-05-04T18:58:42.480Z,4.67
2018-05-04T19:01:14.421Z,3.57
2018-05-04T19:03:45.309Z,4.20
2018-05-04T19:19:52.521Z,3.97
2018-05-04T19:22:21.962Z,3.63
2018-05-04T19:24:50.989Z,4.07
2018-05-04T19:27:21.446Z,4.60
2018-05-04T19:29:52.273Z,4.30
2018-05-04T19:32:27.998Z,4.30
2018-05-04T19:35:03.712Z,4.63
2018-05-04T19:37:40.175Z,4.10
2018-05-04T19:40:15.882Z,4.27
2018-05-04T19:42:48.119Z,3.70
2018-05-04T19:45:26.749Z,4.73
2018-05-04T19:48:02.803Z,4.60
2018-05-04T19:50:33.025Z,4.77
2018-05-04T19:53:01.982Z,4.13
2018-05-04T19:55:32.228Z,4.00
2018-05-04T19:58:01.614Z,3.83
2018-05-04T20:00:31.892Z,4.37
2018-05-04T20:06:10.794Z,3.70
2018-05-04T20:08:40.151Z,3.97
2018-05-04T20:11:14.938Z,3.70
2018-05-04T20:13:49.122Z,3.83
2018-05-04T20:16:19.558Z,4.13
2018-05-04T20:18:50.012Z,4.50
2018-05-04T20:21:18.905Z,4.97
2018-05-04T20:23:47.815Z,5.30
2018-05-04T20:26:19.439Z,5.47
2018-05-04T20:28:50.799Z,5.33
2018-05-04T20:31:25.453Z,4.57
2018-05-04T20:34:00.777Z,4.60
2018-05-04T20:36:34.711Z,4.20
2018-05-04T20:39:09.856Z,4.67
2018-05-04T20:41:44.897Z,4.47
2018-05-04T20:44:20.008Z,4.73
2018-05-04T20:46:49.852Z,4.57
2018-05-04T20:49:19.302Z,4.30
2018-05-04T20:51:50.770Z,4.10
2018-05-04T20:54:21.860Z,4.27
2018-05-04T20:56:50.756Z,4.30
2018-05-04T20:59:19.679Z,5.03
2018-05-04T21:01:48.569Z,4.93
2018-05-04T21:04:17.717Z,5.00
2018-05-04T21:06:51.094Z,4.63
2018-05-04T21:09:20.708Z,4.90
2018-05-04T21:11:49.915Z,4.20
2018-05-04T21:14:18.817Z,4.80
2018-05-04T21:16:47.702Z,3.80
2018-05-04T21:28:45.670Z,4.10
2018-05-04T21:31:16.545Z,4.10
2018-05-04T21:36:53.004Z,4.07
2018-05-04T21:39:25.729Z,4.17
2018-05-04T21:42:00.653Z,4.40
2018-05-04T21:44:37.321Z,4.10
2018-05-04T21:47:12.467Z,4.23
2018-05-04T21:49:46.661Z,4.37
2018-05-04T21:52:20.665Z,4.47
2018-05-04T21:54:53.472Z,3.80
2018-05-04T21:57:32.520Z,4.07
2018-05-04T22:00:07.474Z,4.47
2018-05-04T22:02:40.177Z,4.00
2018-05-04T22:08:28.624Z,4.43
2018-05-04T22:11:01.006Z,4.50
2018-05-04T22:13:31.778Z,4.37
2018-05-04T22:16:08.400Z,4.20
2018-05-04T22:18:46.431Z,4.47
2018-05-04T22:25:09.628Z,3.80
2018-05-04T22:27:40.054Z,4.10
2018-05-04T22:30:17.034Z,3.80
2018-05-04T22:32:47.820Z,3.50
2018-05-04T22:35:21.689Z,3.63
2018-05-04T22:37:52.771Z,3.93
2018-05-04T22:40:21.923Z,3.63
2018-05-04T22:42:52.346Z,3.90
2018-05-04T22:45:31.479Z,3.70
2018-05-04T22:48:06.395Z,3.83
2018-05-04T22:53:46.594Z,3.63
2018-05-04T22:56:23.161Z,3.80
2018-05-04T22:58:59.024Z,4.50
2018-05-04T23:01:29.438Z,3.67
2018-05-04T23:04:02.771Z,3.50
2018-05-04T23:06:46.407Z,3.60
2018-05-04T23:09:24.098Z,3.50
2018-05-04T23:12:03.158Z,3.40
2018-05-04T23:14:34.881Z,3.30
2018-05-04T23:17:12.531Z,3.70
2018-05-04T23:19:45.959Z,3.60
2018-05-04T23:22:22.243Z,3.23
2018-05-04T23:24:53.772Z,3.73
2018-05-04T23:27:25.629Z,3.37
2018-05-04T23:29:58.067Z,3.47
2018-05-04T23:32:39.289Z,3.70
2018-05-04T23:35:15.004Z,3.90
2018-05-04T23:44:20.008Z,4.00
2018-05-04T23:46:56.218Z,4.20
2018-05-04T23:58:09.023Z,4.27
